Strona główna
METAR-TAF:

METAR-TAF

Lotnisko :

Hartness State Airport

Springfield, Vermont, Stany Zjednoczone

Szerokość geograficzna: 43-20-33N, Długość geograficzna: 072-31-18W, wysokość: 175 m

Aktualna obserwacja pogody

Raport powstał 1 godzina i 3 minut temu, godzina 21:54 UTC
Wiatr 3 kt od północny zachód
Temperatura -5°C
Wilgotność 38%
Ciśnienie 1032 hPa
Widzialność: 16.1 km
bezchmurnie

METAR: KVSF 192154Z AUTO 32003KT 10SM CLR M05/M17 A3047 RMK AO2 SLP329 T10501172

czas: 17:57 (22:57 UTC)


TAF: brakujący

Obserwacja i prognoza pogody dla ponad 4000 lotnisk (raport METAR i TAF).

Dostępne stacje oznaczono żółtymi i czerwonymi punktami na mapie.

Najedź kursorem aby zobaczyć nazwę stacji.

Kliknij aby zobaczyć obserwacje i prognozy pogody.

Aby zmienić mapę: kliknij na zielony przycisk z czarnym krzyżykiem, aby powiększyć; na zielony przycisk z myślnikiem, aby pomniejszyć; na zielone strzałki, aby przejść do map sąsiednich.


METAR-TAF: